Arcadia, Nebraska
Current Conditions -  °F | °C
As of 3:53 PM on Thursday 27 Nov 2014 (Local Time) from KODX Reporting Station
Clear Clear  
Wind Chill: 28°   Ceiling: Unl
Heat Index: 38°   Visibility: 10mi
Dew Point: 19°   Wind: 18mph
Humidity: 47%   Direction: 170°S
Pressure: 30.11"   Gusts: 24mph
Location:  41.42°N, 99.13°W
Report Text: KODX 272153Z AUTO 17016G21KT 10SM CLR 03/M07 A3011 RMK AO2 SLP220 T00331072
Loading
Personal Weather Stations






























Interactive Weather Map New forecast layout! Learn more

10-Day Weather Forecast

Advertisements
Track Severe Weather on mobile